Merry Christmas and Happy New Year!

 

Sretan Božić i Nova godina!

 

METAR

METAR LDZA 052330Z 23003KT CAVOK 17/15 Q1014 NOSIG =
METAR LDSP 052330Z AUTO 02004KT 340V060 CAVOK 26/13 Q1011=
METAR LDDU 052330Z VRB05KT CAVOK 25/17 Q1010 =
METAR LDZD 052330Z 07006KT CAVOK 24/13 Q1012 =
METAR LDPL 052330Z 04003KT 010V080 CAVOK 20/15 Q1013=
METAR LDOS 052330Z 25004KT CAVOK 16/14 Q1013=
METAR LDRI 052330Z VRB03KT CAVOK 24/13 Q1013=

TAF

TAF LDZA 052325Z 0600/0700 VRB02KT CAVOK
                 TX31/0614Z TN15/0603Z
           TEMPO 0610/0619 06008KT
           BECMG 0619/0621 03014KT RA
    PROB40 TEMPO 0621/0700 04020G35KT 3000 TSRA SCT030CB BKN040=
TAF LDSP 052325Z 0600/0700 VRB02KT CAVOK
                 TX34/0614Z TN21/0603Z
           BECMG 0609/0611 23008KT
           BECMG 0616/0618 33005KT=
TAF LDDU 052325Z 0600/0700 02012KT CAVOK
                 TX30/0611Z TN24/0603Z
           BECMG 0606/0608 15008KT
           BECMG 0609/0611 29008KT
    PROB30 TEMPO 0612/0615 TSRA FEW040CB SCT045
           BECMG 0615/0617 02018KT=
TAF LDZD 052325Z 0600/0700 04008KT CAVOK
                 TX33/0613Z TN18/0603Z
           BECMG 0610/0612 30012KT
           BECMG 0620/0622 06012KT=
TAF LDPL 052325Z 0600/0700 05008KT CAVOK
                 TX32/0613Z TN19/0603Z
           BECMG 0613/0615 27010KT
           BECMG 0618/0620 06010KT
    PROB30 TEMPO 0621/0700 06015G25KT TSRA FEW030CB SCT040=
TAF LDOS 052325Z 0600/0700 VRB02KT CAVOK
                 TX32/0614Z TN16/0603Z
           BECMG 0618/0620 32012KT=
TAF LDRI 052325Z 0600/0700 06008KT CAVOK
                 TX32/0613Z TN22/0603Z
           BECMG 0610/0612 30007KT
           BECMG 0616/0618 VRB02KT
           BECMG 0622/0700 06012KT=
TAF AMD LDLO 051900Z 0519/0612 CNL=

SIGMET

AIRMET

Remark

Ukoliko se brzina i smjer vjetra ne mogu odrediti zbog privremenog kvara sustava/indikatora,
informacija o vjetru u METAR izvješću bit će prikazana kao "/////KT".

 

Disclaimer

 

In case of temporary system/sensor failure, wind speed and direction data will be represented as "/////KT" in METAR report.

 

If you cannot log in with your user account, please contact stjepko.jancijev@crocontrol.hr.
Specifically, the website deactivates user accounts that have not been used for more than 365 days, so they must be reactivated.
 

         

      Politika MET podataka      

 

Ukoliko se svojim korisničkim računom ne možete logirati na web stranicu, molim vas da se obratite na stjepko.jancijev@crocontrol.hr.

Naime, web stranica deaktivira korisničke račune koji nisu korišteni više od 365 dana te ih je potrebno ponovno aktivirati.